sensor_id;sensor_type;location;lat;lon;timestamp;P1;durP1;ratioP1;P2;durP2;ratioP2
4939;SDS011;2485;49.326;7.214;2022-12-31T00:00:33;2.20;;;2.00;;
4939;SDS011;2485;49.326;7.214;2022-12-31T00:03:00;8.30;;;2.23;;
4939;SDS011;2485;49.326;7.214;2022-12-31T00:05:28;2.30;;;1.97;;
4939;SDS011;2485;49.326;7.214;2022-12-31T00:07:55;2.50;;;2.03;;
4939;SDS011;2485;49.326;7.214;2022-12-31T00:10:21;2.90;;;2.00;;
4939;SDS011;2485;49.326;7.214;2022-12-31T00:12:47;3.03;;;2.10;;
4939;SDS011;2485;49.326;7.214;2022-12-31T00:15:15;2.27;;;2.07;;
4939;SDS011;2485;49.326;7.214;2022-12-31T00:17:42;2.70;;;1.97;;
4939;SDS011;2485;49.326;7.214;2022-12-31T00:20:08;3.50;;;2.00;;
4939;SDS011;2485;49.326;7.214;2022-12-31T00:22:35;2.83;;;2.20;;
4939;SDS011;2485;49.326;7.214;2022-12-31T00:25:01;3.10;;;2.30;;
4939;SDS011;2485;49.326;7.214;2022-12-31T00:27:28;2.90;;;2.40;;
4939;SDS011;2485;49.326;7.214;2022-12-31T00:29:55;4.90;;;3.30;;
4939;SDS011;2485;49.326;7.214;2022-12-31T00:32:22;3.87;;;2.37;;
4939;SDS011;2485;49.326;7.214;2022-12-31T00:34:49;2.30;;;1.83;;
4939;SDS011;2485;49.326;7.214;2022-12-31T00:37:15;2.17;;;1.97;;
4939;SDS011;2485;49.326;7.214;2022-12-31T00:39:41;2.97;;;2.63;;
4939;SDS011;2485;49.326;7.214;2022-12-31T00:42:08;2.70;;;2.27;;
4939;SDS011;2485;49.326;7.214;2022-12-31T00:44:34;6.40;;;2.40;;
4939;SDS011;2485;49.326;7.214;2022-12-31T00:47:00;3.20;;;2.30;;
4939;SDS011;2485;49.326;7.214;2022-12-31T00:49:28;4.13;;;3.10;;
4939;SDS011;2485;49.326;7.214;2022-12-31T00:51:54;5.13;;;3.10;;
4939;SDS011;2485;49.326;7.214;2022-12-31T00:54:21;4.80;;;3.07;;
4939;SDS011;2485;49.326;7.214;2022-12-31T00:56:47;3.23;;;2.70;;
4939;SDS011;2485;49.326;7.214;2022-12-31T00:59:13;5.50;;;3.30;;
4939;SDS011;2485;49.326;7.214;2022-12-31T01:01:40;4.83;;;2.83;;
4939;SDS011;2485;49.326;7.214;2022-12-31T01:04:08;6.93;;;3.13;;
4939;SDS011;2485;49.326;7.214;2022-12-31T01:06:36;6.67;;;3.40;;
4939;SDS011;2485;49.326;7.214;2022-12-31T01:09:03;4.97;;;2.97;;
4939;SDS011;2485;49.326;7.214;2022-12-31T01:11:29;3.30;;;2.10;;
4939;SDS011;2485;49.326;7.214;2022-12-31T01:13:56;4.23;;;2.77;;
4939;SDS011;2485;49.326;7.214;2022-12-31T01:16:24;2.90;;;2.27;;
4939;SDS011;2485;49.326;7.214;2022-12-31T01:18:51;3.73;;;2.33;;
4939;SDS011;2485;49.326;7.214;2022-12-31T01:21:17;4.30;;;3.00;;
4939;SDS011;2485;49.326;7.214;2022-12-31T01:23:45;7.43;;;3.03;;
4939;SDS011;2485;49.326;7.214;2022-12-31T01:26:12;5.67;;;2.97;;
4939;SDS011;2485;49.326;7.214;2022-12-31T01:28:39;5.70;;;2.80;;
4939;SDS011;2485;49.326;7.214;2022-12-31T01:31:06;9.20;;;2.63;;
4939;SDS011;2485;49.326;7.214;2022-12-31T01:33:33;3.23;;;2.20;;
4939;SDS011;2485;49.326;7.214;2022-12-31T01:36:02;4.20;;;2.30;;
4939;SDS011;2485;49.326;7.214;2022-12-31T01:38:29;3.73;;;2.80;;
4939;SDS011;2485;49.326;7.214;2022-12-31T01:40:57;2.80;;;2.50;;
4939;SDS011;2485;49.326;7.214;2022-12-31T01:43:23;5.10;;;2.20;;
4939;SDS011;2485;49.326;7.214;2022-12-31T01:46:07;2.80;;;2.23;;
4939;SDS011;2485;49.326;7.214;2022-12-31T01:48:34;5.03;;;3.00;;
4939;SDS011;2485;49.326;7.214;2022-12-31T01:51:01;9.60;;;2.93;;
4939;SDS011;2485;49.326;7.214;2022-12-31T01:53:27;3.00;;;2.23;;
4939;SDS011;2485;49.326;7.214;2022-12-31T01:55:54;7.50;;;2.50;;
4939;SDS011;2485;49.326;7.214;2022-12-31T01:58:24;3.07;;;2.20;;
4939;SDS011;2485;49.326;7.214;2022-12-31T02:00:52;3.37;;;2.53;;
4939;SDS011;2485;49.326;7.214;2022-12-31T02:03:20;6.40;;;2.20;;
4939;SDS011;2485;49.326;7.214;2022-12-31T02:05:48;3.30;;;2.83;;
4939;SDS011;2485;49.326;7.214;2022-12-31T02:08:16;3.40;;;2.60;;
4939;SDS011;2485;49.326;7.214;2022-12-31T02:10:43;6.33;;;2.90;;
4939;SDS011;2485;49.326;7.214;2022-12-31T02:13:09;8.60;;;2.93;;
4939;SDS011;2485;49.326;7.214;2022-12-31T02:15:40;5.47;;;2.43;;
4939;SDS011;2485;49.326;7.214;2022-12-31T02:18:11;4.03;;;2.13;;
4939;SDS011;2485;49.326;7.214;2022-12-31T02:20:53;3.67;;;2.50;;
4939;SDS011;2485;49.326;7.214;2022-12-31T02:26:15;5.87;;;2.93;;
4939;SDS011;2485;49.326;7.214;2022-12-31T02:28:51;4.03;;;2.70;;
4939;SDS011;2485;49.326;7.214;2022-12-31T02:31:23;5.80;;;2.97;;
4939;SDS011;2485;49.326;7.214;2022-12-31T02:33:51;5.30;;;2.87;;
4939;SDS011;2485;49.326;7.214;2022-12-31T02:36:19;4.93;;;2.53;;
4939;SDS011;2485;49.326;7.214;2022-12-31T02:38:47;4.70;;;2.80;;
4939;SDS011;2485;49.326;7.214;2022-12-31T02:41:15;4.33;;;2.77;;
4939;SDS011;2485;49.326;7.214;2022-12-31T02:43:56;4.20;;;2.60;;
4939;SDS011;2485;49.326;7.214;2022-12-31T02:46:25;2.43;;;2.20;;
4939;SDS011;2485;49.326;7.214;2022-12-31T02:48:54;2.30;;;2.10;;
4939;SDS011;2485;49.326;7.214;2022-12-31T02:51:28;3.87;;;3.10;;
4939;SDS011;2485;49.326;7.214;2022-12-31T02:54:10;5.50;;;2.60;;
4939;SDS011;2485;49.326;7.214;2022-12-31T02:56:42;3.67;;;2.23;;
4939;SDS011;2485;49.326;7.214;2022-12-31T02:59:11;2.63;;;2.23;;
4939;SDS011;2485;49.326;7.214;2022-12-31T03:01:59;2.60;;;2.27;;
4939;SDS011;2485;49.326;7.214;2022-12-31T03:04:39;3.17;;;2.20;;
4939;SDS011;2485;49.326;7.214;2022-12-31T03:07:07;7.80;;;2.30;;
4939;SDS011;2485;49.326;7.214;2022-12-31T03:09:34;6.17;;;2.30;;
4939;SDS011;2485;49.326;7.214;2022-12-31T03:12:01;3.67;;;1.80;;
4939;SDS011;2485;49.326;7.214;2022-12-31T03:14:45;9.03;;;2.30;;
4939;SDS011;2485;49.326;7.214;2022-12-31T03:17:13;2.17;;;1.70;;
4939;SDS011;2485;49.326;7.214;2022-12-31T03:19:39;2.60;;;1.80;;
4939;SDS011;2485;49.326;7.214;2022-12-31T03:22:23;2.50;;;1.97;;
4939;SDS011;2485;49.326;7.214;2022-12-31T03:24:52;5.97;;;1.77;;
4939;SDS011;2485;49.326;7.214;2022-12-31T03:27:36;4.07;;;2.10;;
4939;SDS011;2485;49.326;7.214;2022-12-31T03:30:03;2.43;;;1.50;;
4939;SDS011;2485;49.326;7.214;2022-12-31T03:32:31;2.20;;;1.70;;
4939;SDS011;2485;49.326;7.214;2022-12-31T03:34:57;3.00;;;1.60;;
4939;SDS011;2485;49.326;7.214;2022-12-31T03:37:24;2.30;;;1.63;;
4939;SDS011;2485;49.326;7.214;2022-12-31T03:39:50;8.70;;;2.90;;
4939;SDS011;2485;49.326;7.214;2022-12-31T03:42:16;3.70;;;1.90;;
4939;SDS011;2485;49.326;7.214;2022-12-31T03:44:43;3.20;;;1.90;;
4939;SDS011;2485;49.326;7.214;2022-12-31T03:47:09;2.77;;;2.17;;
4939;SDS011;2485;49.326;7.214;2022-12-31T03:49:37;2.47;;;1.93;;
4939;SDS011;2485;49.326;7.214;2022-12-31T03:52:03;6.07;;;2.20;;
4939;SDS011;2485;49.326;7.214;2022-12-31T03:54:30;5.17;;;2.30;;
4939;SDS011;2485;49.326;7.214;2022-12-31T03:56:56;3.90;;;1.90;;
4939;SDS011;2485;49.326;7.214;2022-12-31T03:59:24;2.13;;;1.80;;
4939;SDS011;2485;49.326;7.214;2022-12-31T04:01:50;2.57;;;2.00;;
4939;SDS011;2485;49.326;7.214;2022-12-31T04:04:17;2.20;;;2.00;;
4939;SDS011;2485;49.326;7.214;2022-12-31T04:06:44;6.60;;;1.90;;
4939;SDS011;2485;49.326;7.214;2022-12-31T04:09:11;3.23;;;1.67;;
4939;SDS011;2485;49.326;7.214;2022-12-31T04:11:37;3.53;;;1.90;;
4939;SDS011;2485;49.326;7.214;2022-12-31T04:14:04;2.00;;;1.83;;
4939;SDS011;2485;49.326;7.214;2022-12-31T04:16:30;1.77;;;1.67;;
4939;SDS011;2485;49.326;7.214;2022-12-31T04:18:56;2.53;;;1.53;;
4939;SDS011;2485;49.326;7.214;2022-12-31T04:21:23;2.67;;;2.00;;
4939;SDS011;2485;49.326;7.214;2022-12-31T04:23:51;6.23;;;2.07;;
4939;SDS011;2485;49.326;7.214;2022-12-31T04:26:17;2.03;;;1.83;;
4939;SDS011;2485;49.326;7.214;2022-12-31T04:28:44;2.53;;;1.53;;
4939;SDS011;2485;49.326;7.214;2022-12-31T04:31:10;2.70;;;1.90;;
4939;SDS011;2485;49.326;7.214;2022-12-31T04:33:36;1.93;;;1.73;;
4939;SDS011;2485;49.326;7.214;2022-12-31T04:36:03;2.53;;;1.83;;
4939;SDS011;2485;49.326;7.214;2022-12-31T04:38:30;2.83;;;1.80;;
4939;SDS011;2485;49.326;7.214;2022-12-31T04:40:58;1.60;;;1.43;;
4939;SDS011;2485;49.326;7.214;2022-12-31T04:43:43;2.50;;;1.90;;
4939;SDS011;2485;49.326;7.214;2022-12-31T04:46:09;2.07;;;1.70;;
4939;SDS011;2485;49.326;7.214;2022-12-31T04:48:36;2.17;;;1.97;;
4939;SDS011;2485;49.326;7.214;2022-12-31T04:51:02;4.10;;;1.90;;
4939;SDS011;2485;49.326;7.214;2022-12-31T04:53:29;2.73;;;1.40;;
4939;SDS011;2485;49.326;7.214;2022-12-31T04:55:55;2.03;;;1.63;;
4939;SDS011;2485;49.326;7.214;2022-12-31T04:58:23;5.27;;;2.10;;
4939;SDS011;2485;49.326;7.214;2022-12-31T05:00:50;2.33;;;1.70;;
4939;SDS011;2485;49.326;7.214;2022-12-31T05:03:18;2.47;;;1.80;;
4939;SDS011;2485;49.326;7.214;2022-12-31T05:05:45;3.13;;;1.60;;
4939;SDS011;2485;49.326;7.214;2022-12-31T05:08:14;2.97;;;1.40;;
4939;SDS011;2485;49.326;7.214;2022-12-31T05:10:41;3.00;;;1.50;;
4939;SDS011;2485;49.326;7.214;2022-12-31T05:13:07;2.37;;;1.60;;
4939;SDS011;2485;49.326;7.214;2022-12-31T05:15:35;4.57;;;1.80;;
4939;SDS011;2485;49.326;7.214;2022-12-31T05:18:01;1.73;;;1.50;;
4939;SDS011;2485;49.326;7.214;2022-12-31T05:20:28;2.13;;;1.73;;
4939;SDS011;2485;49.326;7.214;2022-12-31T05:22:54;5.30;;;1.60;;
4939;SDS011;2485;49.326;7.214;2022-12-31T05:25:20;2.10;;;1.50;;
4939;SDS011;2485;49.326;7.214;2022-12-31T05:27:47;2.43;;;1.90;;
4939;SDS011;2485;49.326;7.214;2022-12-31T05:30:13;1.70;;;1.60;;
4939;SDS011;2485;49.326;7.214;2022-12-31T05:32:41;1.70;;;1.60;;
4939;SDS011;2485;49.326;7.214;2022-12-31T05:35:07;2.73;;;1.70;;
4939;SDS011;2485;49.326;7.214;2022-12-31T05:37:34;2.23;;;1.70;;
4939;SDS011;2485;49.326;7.214;2022-12-31T05:40:00;2.93;;;1.90;;
4939;SDS011;2485;49.326;7.214;2022-12-31T05:42:26;2.50;;;2.20;;
4939;SDS011;2485;49.326;7.214;2022-12-31T05:44:53;3.63;;;2.30;;
4939;SDS011;2485;49.326;7.214;2022-12-31T05:47:19;2.70;;;1.87;;
4939;SDS011;2485;49.326;7.214;2022-12-31T05:49:47;3.63;;;2.17;;
4939;SDS011;2485;49.326;7.214;2022-12-31T05:52:13;4.30;;;1.73;;
4939;SDS011;2485;49.326;7.214;2022-12-31T05:54:39;3.40;;;2.00;;
4939;SDS011;2485;49.326;7.214;2022-12-31T05:57:06;4.03;;;1.80;;
4939;SDS011;2485;49.326;7.214;2022-12-31T05:59:32;1.50;;;1.40;;
4939;SDS011;2485;49.326;7.214;2022-12-31T06:01:59;3.70;;;1.57;;
4939;SDS011;2485;49.326;7.214;2022-12-31T06:04:25;10.10;;;2.00;;
4939;SDS011;2485;49.326;7.214;2022-12-31T06:06:53;3.73;;;1.60;;
4939;SDS011;2485;49.326;7.214;2022-12-31T06:09:19;2.87;;;1.97;;
4939;SDS011;2485;49.326;7.214;2022-12-31T06:11:46;2.73;;;2.03;;
4939;SDS011;2485;49.326;7.214;2022-12-31T06:14:12;2.90;;;1.60;;
4939;SDS011;2485;49.326;7.214;2022-12-31T06:16:39;5.63;;;2.80;;
4939;SDS011;2485;49.326;7.214;2022-12-31T06:19:06;3.10;;;1.93;;
4939;SDS011;2485;49.326;7.214;2022-12-31T06:21:32;2.40;;;1.93;;
4939;SDS011;2485;49.326;7.214;2022-12-31T06:24:00;2.37;;;1.73;;
4939;SDS011;2485;49.326;7.214;2022-12-31T06:26:26;3.13;;;2.00;;
4939;SDS011;2485;49.326;7.214;2022-12-31T06:28:53;3.07;;;2.20;;
4939;SDS011;2485;49.326;7.214;2022-12-31T06:31:19;3.70;;;2.10;;
4939;SDS011;2485;49.326;7.214;2022-12-31T06:33:45;2.50;;;1.80;;
4939;SDS011;2485;49.326;7.214;2022-12-31T06:36:12;3.70;;;2.20;;
4939;SDS011;2485;49.326;7.214;2022-12-31T06:38:39;4.23;;;1.90;;
4939;SDS011;2485;49.326;7.214;2022-12-31T06:41:09;6.70;;;2.33;;
4939;SDS011;2485;49.326;7.214;2022-12-31T06:43:36;4.83;;;2.47;;
4939;SDS011;2485;49.326;7.214;2022-12-31T06:46:03;2.90;;;2.47;;
4939;SDS011;2485;49.326;7.214;2022-12-31T06:48:30;2.93;;;2.10;;
4939;SDS011;2485;49.326;7.214;2022-12-31T06:51:01;1.83;;;1.67;;
4939;SDS011;2485;49.326;7.214;2022-12-31T06:53:29;3.77;;;2.37;;
4939;SDS011;2485;49.326;7.214;2022-12-31T06:55:55;3.53;;;2.20;;
4939;SDS011;2485;49.326;7.214;2022-12-31T06:58:23;2.40;;;2.17;;
4939;SDS011;2485;49.326;7.214;2022-12-31T07:00:52;3.63;;;2.30;;
4939;SDS011;2485;49.326;7.214;2022-12-31T07:03:22;6.10;;;2.67;;
4939;SDS011;2485;49.326;7.214;2022-12-31T07:05:51;10.63;;;2.40;;
4939;SDS011;2485;49.326;7.214;2022-12-31T07:08:25;4.23;;;2.47;;
4939;SDS011;2485;49.326;7.214;2022-12-31T07:10:55;3.97;;;1.80;;
4939;SDS011;2485;49.326;7.214;2022-12-31T07:19:08;2.53;;;2.07;;
4939;SDS011;2485;49.326;7.214;2022-12-31T07:21:36;3.27;;;2.00;;
4939;SDS011;2485;49.326;7.214;2022-12-31T07:24:04;3.97;;;2.43;;
4939;SDS011;2485;49.326;7.214;2022-12-31T07:26:34;4.03;;;2.17;;
4939;SDS011;2485;49.326;7.214;2022-12-31T07:29:04;3.33;;;2.50;;
4939;SDS011;2485;49.326;7.214;2022-12-31T07:31:36;6.33;;;2.47;;
4939;SDS011;2485;49.326;7.214;2022-12-31T07:34:08;5.27;;;3.30;;
4939;SDS011;2485;49.326;7.214;2022-12-31T07:39:21;8.23;;;3.10;;
4939;SDS011;2485;49.326;7.214;2022-12-31T07:41:51;4.47;;;2.53;;
4939;SDS011;2485;49.326;7.214;2022-12-31T07:44:25;3.63;;;2.17;;
4939;SDS011;2485;49.326;7.214;2022-12-31T07:46:55;3.87;;;2.23;;
4939;SDS011;2485;49.326;7.214;2022-12-31T07:49:24;6.43;;;2.60;;
4939;SDS011;2485;49.326;7.214;2022-12-31T07:51:50;4.43;;;2.60;;
4939;SDS011;2485;49.326;7.214;2022-12-31T07:54:17;3.33;;;2.20;;
4939;SDS011;2485;49.326;7.214;2022-12-31T07:56:43;7.20;;;2.30;;
4939;SDS011;2485;49.326;7.214;2022-12-31T07:59:13;9.73;;;2.40;;
4939;SDS011;2485;49.326;7.214;2022-12-31T08:01:44;2.50;;;2.07;;
4939;SDS011;2485;49.326;7.214;2022-12-31T08:04:14;4.20;;;2.20;;
4939;SDS011;2485;49.326;7.214;2022-12-31T08:06:45;2.10;;;1.90;;
4939;SDS011;2485;49.326;7.214;2022-12-31T08:09:20;4.63;;;2.20;;
4939;SDS011;2485;49.326;7.214;2022-12-31T08:11:51;4.00;;;2.40;;
4939;SDS011;2485;49.326;7.214;2022-12-31T08:14:20;2.13;;;1.93;;
4939;SDS011;2485;49.326;7.214;2022-12-31T08:16:47;3.07;;;2.30;;
4939;SDS011;2485;49.326;7.214;2022-12-31T08:19:15;2.40;;;1.80;;
4939;SDS011;2485;49.326;7.214;2022-12-31T08:21:47;5.60;;;2.57;;
4939;SDS011;2485;49.326;7.214;2022-12-31T08:24:16;6.13;;;2.50;;
4939;SDS011;2485;49.326;7.214;2022-12-31T08:26:46;3.90;;;2.17;;
4939;SDS011;2485;49.326;7.214;2022-12-31T08:29:20;3.10;;;2.80;;
4939;SDS011;2485;49.326;7.214;2022-12-31T08:31:51;3.73;;;2.67;;
4939;SDS011;2485;49.326;7.214;2022-12-31T08:34:20;3.47;;;2.77;;
4939;SDS011;2485;49.326;7.214;2022-12-31T08:36:51;4.10;;;2.30;;
4939;SDS011;2485;49.326;7.214;2022-12-31T08:39:26;5.77;;;2.67;;
4939;SDS011;2485;49.326;7.214;2022-12-31T08:41:55;3.77;;;2.30;;
4939;SDS011;2485;49.326;7.214;2022-12-31T08:44:24;3.97;;;2.20;;
4939;SDS011;2485;49.326;7.214;2022-12-31T08:46:53;5.50;;;2.07;;
4939;SDS011;2485;49.326;7.214;2022-12-31T08:49:22;2.33;;;2.13;;
4939;SDS011;2485;49.326;7.214;2022-12-31T08:51:51;2.90;;;2.17;;
4939;SDS011;2485;49.326;7.214;2022-12-31T08:54:18;3.10;;;2.60;;
4939;SDS011;2485;49.326;7.214;2022-12-31T08:56:45;4.50;;;2.60;;
4939;SDS011;2485;49.326;7.214;2022-12-31T08:59:19;7.23;;;2.40;;
4939;SDS011;2485;49.326;7.214;2022-12-31T09:01:55;3.97;;;2.73;;
4939;SDS011;2485;49.326;7.214;2022-12-31T09:04:24;4.73;;;2.37;;
4939;SDS011;2485;49.326;7.214;2022-12-31T09:06:54;3.83;;;2.53;;
4939;SDS011;2485;49.326;7.214;2022-12-31T09:09:23;6.27;;;2.10;;
4939;SDS011;2485;49.326;7.214;2022-12-31T09:11:53;3.73;;;2.37;;
4939;SDS011;2485;49.326;7.214;2022-12-31T09:14:28;5.10;;;2.20;;
4939;SDS011;2485;49.326;7.214;2022-12-31T09:17:02;4.87;;;2.63;;
4939;SDS011;2485;49.326;7.214;2022-12-31T09:19:32;3.60;;;2.00;;
4939;SDS011;2485;49.326;7.214;2022-12-31T09:22:00;3.20;;;2.43;;
4939;SDS011;2485;49.326;7.214;2022-12-31T09:24:27;5.03;;;2.50;;
4939;SDS011;2485;49.326;7.214;2022-12-31T09:26:56;4.03;;;2.00;;
4939;SDS011;2485;49.326;7.214;2022-12-31T09:29:29;3.43;;;2.27;;
4939;SDS011;2485;49.326;7.214;2022-12-31T09:32:02;4.23;;;2.77;;
4939;SDS011;2485;49.326;7.214;2022-12-31T09:34:33;4.80;;;2.47;;
4939;SDS011;2485;49.326;7.214;2022-12-31T09:37:04;3.60;;;2.50;;
4939;SDS011;2485;49.326;7.214;2022-12-31T09:39:32;2.90;;;2.33;;
4939;SDS011;2485;49.326;7.214;2022-12-31T09:42:03;8.20;;;2.60;;
4939;SDS011;2485;49.326;7.214;2022-12-31T09:44:52;6.17;;;2.27;;
4939;SDS011;2485;49.326;7.214;2022-12-31T09:47:36;5.10;;;2.30;;
4939;SDS011;2485;49.326;7.214;2022-12-31T09:50:17;4.07;;;2.43;;
4939;SDS011;2485;49.326;7.214;2022-12-31T09:55:32;6.17;;;3.67;;
4939;SDS011;2485;49.326;7.214;2022-12-31T09:58:01;3.37;;;2.13;;
4939;SDS011;2485;49.326;7.214;2022-12-31T10:00:32;4.63;;;2.37;;
4939;SDS011;2485;49.326;7.214;2022-12-31T10:03:06;3.77;;;2.27;;
4939;SDS011;2485;49.326;7.214;2022-12-31T10:05:45;6.97;;;2.40;;
4939;SDS011;2485;49.326;7.214;2022-12-31T10:08:18;2.60;;;2.00;;
4939;SDS011;2485;49.326;7.214;2022-12-31T10:10:51;2.77;;;2.17;;
4939;SDS011;2485;49.326;7.214;2022-12-31T10:13:28;3.23;;;2.40;;
4939;SDS011;2485;49.326;7.214;2022-12-31T10:16:02;5.87;;;2.30;;
4939;SDS011;2485;49.326;7.214;2022-12-31T10:18:40;4.50;;;2.47;;
4939;SDS011;2485;49.326;7.214;2022-12-31T10:21:13;5.13;;;2.50;;
4939;SDS011;2485;49.326;7.214;2022-12-31T10:27:17;3.03;;;1.93;;
4939;SDS011;2485;49.326;7.214;2022-12-31T10:29:46;3.20;;;2.07;;
4939;SDS011;2485;49.326;7.214;2022-12-31T10:32:15;4.00;;;2.40;;
4939;SDS011;2485;49.326;7.214;2022-12-31T10:34:45;3.57;;;1.80;;
4939;SDS011;2485;49.326;7.214;2022-12-31T10:37:14;2.80;;;2.20;;
4939;SDS011;2485;49.326;7.214;2022-12-31T10:39:43;2.90;;;2.10;;
4939;SDS011;2485;49.326;7.214;2022-12-31T10:42:21;3.63;;;2.00;;
4939;SDS011;2485;49.326;7.214;2022-12-31T10:44:55;3.67;;;2.30;;
4939;SDS011;2485;49.326;7.214;2022-12-31T10:47:40;4.80;;;2.37;;
4939;SDS011;2485;49.326;7.214;2022-12-31T11:01:27;2.07;;;1.70;;
4939;SDS011;2485;49.326;7.214;2022-12-31T11:06:56;3.10;;;1.80;;
4939;SDS011;2485;49.326;7.214;2022-12-31T11:09:49;5.40;;;2.20;;
4939;SDS011;2485;49.326;7.214;2022-12-31T11:12:30;3.57;;;2.30;;
4939;SDS011;2485;49.326;7.214;2022-12-31T11:15:23;3.17;;;2.17;;
4939;SDS011;2485;49.326;7.214;2022-12-31T11:17:59;2.57;;;2.20;;
4939;SDS011;2485;49.326;7.214;2022-12-31T11:20:36;2.93;;;1.90;;
4939;SDS011;2485;49.326;7.214;2022-12-31T11:23:08;3.70;;;2.60;;
4939;SDS011;2485;49.326;7.214;2022-12-31T11:25:42;2.80;;;2.33;;
4939;SDS011;2485;49.326;7.214;2022-12-31T11:31:04;4.30;;;2.20;;
4939;SDS011;2485;49.326;7.214;2022-12-31T11:33:39;3.83;;;2.00;;
4939;SDS011;2485;49.326;7.214;2022-12-31T11:36:12;1.73;;;1.50;;
4939;SDS011;2485;49.326;7.214;2022-12-31T11:38:44;7.93;;;3.20;;
4939;SDS011;2485;49.326;7.214;2022-12-31T11:41:12;3.70;;;1.90;;
4939;SDS011;2485;49.326;7.214;2022-12-31T11:43:43;3.00;;;1.97;;
4939;SDS011;2485;49.326;7.214;2022-12-31T11:46:23;1.83;;;1.30;;
4939;SDS011;2485;49.326;7.214;2022-12-31T11:48:59;2.90;;;2.00;;
4939;SDS011;2485;49.326;7.214;2022-12-31T11:51:34;3.50;;;1.90;;
4939;SDS011;2485;49.326;7.214;2022-12-31T11:54:14;2.60;;;1.50;;
4939;SDS011;2485;49.326;7.214;2022-12-31T11:56:49;2.87;;;1.70;;
4939;SDS011;2485;49.326;7.214;2022-12-31T11:59:16;3.43;;;1.77;;
4939;SDS011;2485;49.326;7.214;2022-12-31T12:01:44;2.90;;;1.67;;
4939;SDS011;2485;49.326;7.214;2022-12-31T12:04:14;2.90;;;1.80;;
4939;SDS011;2485;49.326;7.214;2022-12-31T12:06:40;2.43;;;1.60;;
4939;SDS011;2485;49.326;7.214;2022-12-31T12:09:10;3.60;;;1.80;;
4939;SDS011;2485;49.326;7.214;2022-12-31T12:11:39;3.30;;;1.90;;
4939;SDS011;2485;49.326;7.214;2022-12-31T12:14:17;7.00;;;1.90;;
4939;SDS011;2485;49.326;7.214;2022-12-31T12:16:43;4.90;;;2.00;;
4939;SDS011;2485;49.326;7.214;2022-12-31T12:19:15;3.30;;;1.90;;
4939;SDS011;2485;49.326;7.214;2022-12-31T12:21:43;2.80;;;1.80;;
4939;SDS011;2485;49.326;7.214;2022-12-31T12:24:15;2.70;;;1.63;;
4939;SDS011;2485;49.326;7.214;2022-12-31T12:26:44;4.80;;;2.10;;
4939;SDS011;2485;49.326;7.214;2022-12-31T12:29:10;4.40;;;1.73;;
4939;SDS011;2485;49.326;7.214;2022-12-31T12:31:37;2.73;;;1.63;;
4939;SDS011;2485;49.326;7.214;2022-12-31T12:34:03;6.43;;;1.80;;
4939;SDS011;2485;49.326;7.214;2022-12-31T12:36:31;2.43;;;1.70;;
4939;SDS011;2485;49.326;7.214;2022-12-31T12:39:02;2.03;;;1.70;;
4939;SDS011;2485;49.326;7.214;2022-12-31T12:41:28;4.57;;;1.93;;
4939;SDS011;2485;49.326;7.214;2022-12-31T12:44:02;2.77;;;2.13;;
4939;SDS011;2485;49.326;7.214;2022-12-31T12:46:29;2.90;;;2.07;;
4939;SDS011;2485;49.326;7.214;2022-12-31T12:48:56;2.80;;;1.80;;
4939;SDS011;2485;49.326;7.214;2022-12-31T12:51:27;1.57;;;1.43;;
4939;SDS011;2485;49.326;7.214;2022-12-31T12:53:59;6.13;;;2.97;;
4939;SDS011;2485;49.326;7.214;2022-12-31T12:56:29;11.60;;;4.47;;
4939;SDS011;2485;49.326;7.214;2022-12-31T12:59:17;10.37;;;5.23;;
4939;SDS011;2485;49.326;7.214;2022-12-31T13:01:48;15.57;;;7.47;;
4939;SDS011;2485;49.326;7.214;2022-12-31T13:04:25;5.20;;;2.97;;
4939;SDS011;2485;49.326;7.214;2022-12-31T13:06:57;8.60;;;4.00;;
4939;SDS011;2485;49.326;7.214;2022-12-31T13:09:32;4.67;;;2.63;;
4939;SDS011;2485;49.326;7.214;2022-12-31T13:12:02;4.53;;;2.87;;
4939;SDS011;2485;49.326;7.214;2022-12-31T13:14:30;1.97;;;1.67;;
4939;SDS011;2485;49.326;7.214;2022-12-31T13:16:58;2.03;;;1.40;;
4939;SDS011;2485;49.326;7.214;2022-12-31T13:19:29;6.90;;;1.60;;
4939;SDS011;2485;49.326;7.214;2022-12-31T13:21:58;2.10;;;1.83;;
4939;SDS011;2485;49.326;7.214;2022-12-31T13:24:34;1.50;;;1.27;;
4939;SDS011;2485;49.326;7.214;2022-12-31T13:27:05;1.47;;;1.37;;
4939;SDS011;2485;49.326;7.214;2022-12-31T13:29:33;1.47;;;1.37;;
4939;SDS011;2485;49.326;7.214;2022-12-31T13:32:01;4.90;;;1.23;;
4939;SDS011;2485;49.326;7.214;2022-12-31T13:34:29;2.17;;;1.53;;
4939;SDS011;2485;49.326;7.214;2022-12-31T13:36:58;5.73;;;1.50;;
4939;SDS011;2485;49.326;7.214;2022-12-31T13:39:27;1.70;;;1.20;;
4939;SDS011;2485;49.326;7.214;2022-12-31T13:41:55;3.97;;;1.33;;
4939;SDS011;2485;49.326;7.214;2022-12-31T13:44:26;5.43;;;1.60;;
4939;SDS011;2485;49.326;7.214;2022-12-31T13:46:54;2.30;;;1.50;;
4939;SDS011;2485;49.326;7.214;2022-12-31T13:49:23;1.87;;;1.30;;
4939;SDS011;2485;49.326;7.214;2022-12-31T13:51:52;1.77;;;1.43;;
4939;SDS011;2485;49.326;7.214;2022-12-31T13:54:23;2.73;;;1.63;;
4939;SDS011;2485;49.326;7.214;2022-12-31T13:56:51;2.80;;;1.77;;
4939;SDS011;2485;49.326;7.214;2022-12-31T13:59:21;2.10;;;1.27;;
4939;SDS011;2485;49.326;7.214;2022-12-31T14:01:49;1.43;;;1.33;;
4939;SDS011;2485;49.326;7.214;2022-12-31T14:04:17;1.83;;;1.50;;
4939;SDS011;2485;49.326;7.214;2022-12-31T14:06:48;3.07;;;1.87;;
4939;SDS011;2485;49.326;7.214;2022-12-31T14:09:16;3.60;;;1.83;;
4939;SDS011;2485;49.326;7.214;2022-12-31T14:11:48;6.50;;;1.80;;
4939;SDS011;2485;49.326;7.214;2022-12-31T14:14:22;5.47;;;1.97;;
4939;SDS011;2485;49.326;7.214;2022-12-31T14:16:51;4.07;;;1.67;;
4939;SDS011;2485;49.326;7.214;2022-12-31T14:19:19;1.70;;;1.60;;
4939;SDS011;2485;49.326;7.214;2022-12-31T14:21:50;2.60;;;1.87;;
4939;SDS011;2485;49.326;7.214;2022-12-31T14:24:22;3.83;;;1.40;;
4939;SDS011;2485;49.326;7.214;2022-12-31T14:26:54;1.57;;;1.43;;
4939;SDS011;2485;49.326;7.214;2022-12-31T14:29:26;2.80;;;1.70;;
4939;SDS011;2485;49.326;7.214;2022-12-31T14:32:03;1.43;;;1.33;;
4939;SDS011;2485;49.326;7.214;2022-12-31T14:34:32;2.13;;;1.50;;
4939;SDS011;2485;49.326;7.214;2022-12-31T14:37:04;1.90;;;1.53;;
4939;SDS011;2485;49.326;7.214;2022-12-31T14:39:38;5.43;;;1.60;;
4939;SDS011;2485;49.326;7.214;2022-12-31T14:42:11;2.27;;;1.80;;
4939;SDS011;2485;49.326;7.214;2022-12-31T14:44:45;2.07;;;1.50;;
4939;SDS011;2485;49.326;7.214;2022-12-31T14:47:18;3.90;;;2.00;;
4939;SDS011;2485;49.326;7.214;2022-12-31T14:49:48;2.27;;;1.87;;
4939;SDS011;2485;49.326;7.214;2022-12-31T14:52:22;2.67;;;2.27;;
4939;SDS011;2485;49.326;7.214;2022-12-31T14:54:58;5.60;;;2.93;;
4939;SDS011;2485;49.326;7.214;2022-12-31T14:57:27;4.23;;;2.53;;
4939;SDS011;2485;49.326;7.214;2022-12-31T15:00:00;3.57;;;2.27;;
4939;SDS011;2485;49.326;7.214;2022-12-31T15:02:27;2.60;;;2.27;;
4939;SDS011;2485;49.326;7.214;2022-12-31T15:05:12;3.23;;;2.27;;
4939;SDS011;2485;49.326;7.214;2022-12-31T15:07:40;2.77;;;1.80;;
4939;SDS011;2485;49.326;7.214;2022-12-31T15:10:12;2.50;;;1.50;;
4939;SDS011;2485;49.326;7.214;2022-12-31T15:12:41;1.73;;;1.50;;
4939;SDS011;2485;49.326;7.214;2022-12-31T15:15:27;2.63;;;1.60;;
4939;SDS011;2485;49.326;7.214;2022-12-31T15:17:59;2.90;;;1.90;;
4939;SDS011;2485;49.326;7.214;2022-12-31T15:23:18;4.67;;;2.00;;
4939;SDS011;2485;49.326;7.214;2022-12-31T15:25:46;5.63;;;2.00;;
4939;SDS011;2485;49.326;7.214;2022-12-31T15:28:21;1.87;;;1.47;;
4939;SDS011;2485;49.326;7.214;2022-12-31T15:30:53;4.80;;;2.50;;
4939;SDS011;2485;49.326;7.214;2022-12-31T15:33:21;2.23;;;2.03;;
4939;SDS011;2485;49.326;7.214;2022-12-31T15:35:51;6.27;;;2.00;;
4939;SDS011;2485;49.326;7.214;2022-12-31T15:38:28;3.07;;;2.10;;
4939;SDS011;2485;49.326;7.214;2022-12-31T15:40:55;4.47;;;1.77;;
4939;SDS011;2485;49.326;7.214;2022-12-31T15:43:24;3.20;;;1.90;;
4939;SDS011;2485;49.326;7.214;2022-12-31T15:45:54;2.30;;;1.90;;
4939;SDS011;2485;49.326;7.214;2022-12-31T15:48:21;3.20;;;1.90;;
4939;SDS011;2485;49.326;7.214;2022-12-31T15:50:50;3.87;;;1.70;;
4939;SDS011;2485;49.326;7.214;2022-12-31T15:53:21;2.50;;;1.93;;
4939;SDS011;2485;49.326;7.214;2022-12-31T15:55:49;3.77;;;2.13;;
4939;SDS011;2485;49.326;7.214;2022-12-31T15:58:18;2.80;;;2.10;;
4939;SDS011;2485;49.326;7.214;2022-12-31T16:00:49;3.70;;;2.00;;
4939;SDS011;2485;49.326;7.214;2022-12-31T16:03:19;3.13;;;1.93;;
4939;SDS011;2485;49.326;7.214;2022-12-31T16:05:46;6.50;;;2.07;;
4939;SDS011;2485;49.326;7.214;2022-12-31T16:08:15;4.17;;;2.00;;